< < Back
Terminal Aerodrome Forecast


Current Version              Previous Versions:   1  2  3  4  5  6  7  8  9  

Terminal Aerodrome Forecast

262
FTUS42 KFFC 021741
TAFPDK
TAF
KPDK 021741Z 0218/0318 22008G18KT P6SM SCT040 SCT060 SCT250
      TEMPO 0220/0223 22012G25KT 4SM TSRA BR BKN025CB
     FM030000 22009KT 4SM -TSRA BR BKN025CB
     FM030300 23008KT P6SM VCSH BKN040
     FM030600 25004KT 5SM BR SCT009 BKN015
     FM031200 24005KT P6SM BKN007 PROB30 0316/0318 -SHRA SCT007
      BKN015=

Latest METAR

825
SAUS70 KWBC 030300 RRE
MTRPDK
METAR KPDK 030253Z AUTO 29004G19KT 10SM FEW046 BKN090 OVC110 19/18 A2995
RMK AO2 RAE40 TSB0157E12 SLP130 P0005 60005 T01890178
51015


USA.gov is the U.S. government's official web portal to all federal, state and local government web resources and services.